sensor_id;sensor_type;location;lat;lon;timestamp;P1;durP1;ratioP1;P2;durP2;ratioP2
34481;SDS011;20720;48.886;9.388;2023-04-25T00:02:23;3.00;;;1.60;;
34481;SDS011;20720;48.886;9.388;2023-04-25T00:04:48;5.07;;;1.58;;
34481;SDS011;20720;48.886;9.388;2023-04-25T00:07:13;3.67;;;1.65;;
34481;SDS011;20720;48.886;9.388;2023-04-25T00:09:39;5.20;;;2.13;;
34481;SDS011;20720;48.886;9.388;2023-04-25T00:12:04;3.40;;;1.63;;
34481;SDS011;20720;48.886;9.388;2023-04-25T00:14:30;3.35;;;1.70;;
34481;SDS011;20720;48.886;9.388;2023-04-25T00:16:59;3.42;;;1.40;;
34481;SDS011;20720;48.886;9.388;2023-04-25T00:19:24;3.95;;;1.70;;
34481;SDS011;20720;48.886;9.388;2023-04-25T00:21:51;2.30;;;1.55;;
34481;SDS011;20720;48.886;9.388;2023-04-25T00:24:17;4.30;;;1.38;;
34481;SDS011;20720;48.886;9.388;2023-04-25T00:26:42;2.85;;;1.48;;
34481;SDS011;20720;48.886;9.388;2023-04-25T00:29:07;3.47;;;1.67;;
34481;SDS011;20720;48.886;9.388;2023-04-25T00:31:32;2.75;;;1.70;;
34481;SDS011;20720;48.886;9.388;2023-04-25T00:33:58;2.70;;;1.73;;
34481;SDS011;20720;48.886;9.388;2023-04-25T00:36:23;3.20;;;1.88;;
34481;SDS011;20720;48.886;9.388;2023-04-25T00:38:48;2.95;;;1.88;;
34481;SDS011;20720;48.886;9.388;2023-04-25T00:41:13;4.05;;;2.00;;
34481;SDS011;20720;48.886;9.388;2023-04-25T00:43:39;4.68;;;1.75;;
34481;SDS011;20720;48.886;9.388;2023-04-25T00:46:05;3.78;;;1.80;;
34481;SDS011;20720;48.886;9.388;2023-04-25T00:48:30;4.55;;;2.33;;
34481;SDS011;20720;48.886;9.388;2023-04-25T00:50:57;3.45;;;2.13;;
34481;SDS011;20720;48.886;9.388;2023-04-25T00:53:25;3.28;;;1.70;;
34481;SDS011;20720;48.886;9.388;2023-04-25T00:55:52;4.32;;;1.92;;
34481;SDS011;20720;48.886;9.388;2023-04-25T00:58:18;3.92;;;1.85;;
34481;SDS011;20720;48.886;9.388;2023-04-25T01:00:45;2.58;;;1.67;;
34481;SDS011;20720;48.886;9.388;2023-04-25T01:03:12;2.60;;;1.27;;
34481;SDS011;20720;48.886;9.388;2023-04-25T01:05:40;3.90;;;1.70;;
34481;SDS011;20720;48.886;9.388;2023-04-25T01:08:13;4.18;;;1.70;;
34481;SDS011;20720;48.886;9.388;2023-04-25T01:10:38;2.92;;;1.35;;
34481;SDS011;20720;48.886;9.388;2023-04-25T01:13:04;2.50;;;1.25;;
34481;SDS011;20720;48.886;9.388;2023-04-25T01:15:29;3.40;;;1.45;;
34481;SDS011;20720;48.886;9.388;2023-04-25T01:17:55;3.92;;;1.50;;
34481;SDS011;20720;48.886;9.388;2023-04-25T01:20:21;3.45;;;1.55;;
34481;SDS011;20720;48.886;9.388;2023-04-25T01:22:51;2.22;;;1.42;;
34481;SDS011;20720;48.886;9.388;2023-04-25T01:25:17;2.70;;;1.23;;
34481;SDS011;20720;48.886;9.388;2023-04-25T01:27:43;3.05;;;1.50;;
34481;SDS011;20720;48.886;9.388;2023-04-25T01:30:09;3.13;;;1.55;;
34481;SDS011;20720;48.886;9.388;2023-04-25T01:32:35;3.40;;;1.60;;
34481;SDS011;20720;48.886;9.388;2023-04-25T01:35:07;2.03;;;0.98;;
34481;SDS011;20720;48.886;9.388;2023-04-25T01:37:43;3.47;;;1.70;;
34481;SDS011;20720;48.886;9.388;2023-04-25T01:40:09;2.65;;;1.25;;
34481;SDS011;20720;48.886;9.388;2023-04-25T01:42:37;2.10;;;1.20;;
34481;SDS011;20720;48.886;9.388;2023-04-25T01:45:05;2.55;;;1.25;;
34481;SDS011;20720;48.886;9.388;2023-04-25T01:47:31;3.30;;;1.65;;
34481;SDS011;20720;48.886;9.388;2023-04-25T01:49:56;2.25;;;1.50;;
34481;SDS011;20720;48.886;9.388;2023-04-25T01:52:22;5.03;;;1.25;;
34481;SDS011;20720;48.886;9.388;2023-04-25T01:54:47;4.35;;;1.42;;
34481;SDS011;20720;48.886;9.388;2023-04-25T01:57:14;2.28;;;1.40;;
34481;SDS011;20720;48.886;9.388;2023-04-25T01:59:40;2.53;;;1.40;;
34481;SDS011;20720;48.886;9.388;2023-04-25T02:02:05;3.22;;;1.60;;
34481;SDS011;20720;48.886;9.388;2023-04-25T02:04:31;5.70;;;1.40;;
34481;SDS011;20720;48.886;9.388;2023-04-25T02:06:57;2.42;;;1.30;;
34481;SDS011;20720;48.886;9.388;2023-04-25T02:09:22;2.50;;;1.30;;
34481;SDS011;20720;48.886;9.388;2023-04-25T02:11:48;2.85;;;1.45;;
34481;SDS011;20720;48.886;9.388;2023-04-25T02:14:13;2.15;;;1.33;;
34481;SDS011;20720;48.886;9.388;2023-04-25T02:16:39;3.00;;;1.50;;
34481;SDS011;20720;48.886;9.388;2023-04-25T02:19:04;2.00;;;1.30;;
34481;SDS011;20720;48.886;9.388;2023-04-25T02:21:30;3.33;;;1.42;;
34481;SDS011;20720;48.886;9.388;2023-04-25T02:23:56;4.65;;;1.40;;
34481;SDS011;20720;48.886;9.388;2023-04-25T02:26:21;2.95;;;1.60;;
34481;SDS011;20720;48.886;9.388;2023-04-25T02:28:48;2.28;;;1.35;;
34481;SDS011;20720;48.886;9.388;2023-04-25T02:31:14;3.00;;;1.50;;
34481;SDS011;20720;48.886;9.388;2023-04-25T02:33:39;4.45;;;1.63;;
34481;SDS011;20720;48.886;9.388;2023-04-25T02:36:05;4.68;;;1.50;;
34481;SDS011;20720;48.886;9.388;2023-04-25T02:38:30;3.08;;;1.40;;
34481;SDS011;20720;48.886;9.388;2023-04-25T02:40:55;3.35;;;1.67;;
34481;SDS011;20720;48.886;9.388;2023-04-25T02:43:21;2.60;;;1.63;;
34481;SDS011;20720;48.886;9.388;2023-04-25T02:45:46;2.55;;;1.63;;
34481;SDS011;20720;48.886;9.388;2023-04-25T02:48:12;3.92;;;1.58;;
34481;SDS011;20720;48.886;9.388;2023-04-25T02:50:37;3.58;;;1.67;;
34481;SDS011;20720;48.886;9.388;2023-04-25T02:53:02;3.10;;;1.70;;
34481;SDS011;20720;48.886;9.388;2023-04-25T02:55:28;3.85;;;1.60;;
34481;SDS011;20720;48.886;9.388;2023-04-25T02:57:53;2.33;;;1.27;;
34481;SDS011;20720;48.886;9.388;2023-04-25T03:00:20;3.45;;;1.50;;
34481;SDS011;20720;48.886;9.388;2023-04-25T03:02:46;3.60;;;1.83;;
34481;SDS011;20720;48.886;9.388;2023-04-25T03:05:11;3.58;;;1.85;;
34481;SDS011;20720;48.886;9.388;2023-04-25T03:07:36;2.80;;;2.00;;
34481;SDS011;20720;48.886;9.388;2023-04-25T03:10:04;3.40;;;2.00;;
34481;SDS011;20720;48.886;9.388;2023-04-25T03:12:30;2.55;;;1.48;;
34481;SDS011;20720;48.886;9.388;2023-04-25T03:14:56;3.38;;;1.73;;
34481;SDS011;20720;48.886;9.388;2023-04-25T03:17:21;4.65;;;1.90;;
34481;SDS011;20720;48.886;9.388;2023-04-25T03:19:46;3.30;;;1.80;;
34481;SDS011;20720;48.886;9.388;2023-04-25T03:22:11;3.83;;;2.10;;
34481;SDS011;20720;48.886;9.388;2023-04-25T03:24:37;7.93;;;1.90;;
34481;SDS011;20720;48.886;9.388;2023-04-25T03:27:02;2.28;;;1.65;;
34481;SDS011;20720;48.886;9.388;2023-04-25T03:29:27;6.78;;;2.35;;
34481;SDS011;20720;48.886;9.388;2023-04-25T03:31:53;3.58;;;1.60;;
34481;SDS011;20720;48.886;9.388;2023-04-25T03:34:18;4.55;;;2.20;;
34481;SDS011;20720;48.886;9.388;2023-04-25T03:36:44;4.35;;;1.90;;
34481;SDS011;20720;48.886;9.388;2023-04-25T03:39:09;4.40;;;1.80;;
34481;SDS011;20720;48.886;9.388;2023-04-25T03:41:34;2.80;;;1.95;;
34481;SDS011;20720;48.886;9.388;2023-04-25T03:44:00;4.88;;;2.10;;
34481;SDS011;20720;48.886;9.388;2023-04-25T03:46:25;3.10;;;1.70;;
34481;SDS011;20720;48.886;9.388;2023-04-25T03:48:50;3.60;;;1.83;;
34481;SDS011;20720;48.886;9.388;2023-04-25T03:51:16;2.70;;;1.63;;
34481;SDS011;20720;48.886;9.388;2023-04-25T03:53:41;3.58;;;1.70;;
34481;SDS011;20720;48.886;9.388;2023-04-25T03:56:06;3.05;;;1.85;;
34481;SDS011;20720;48.886;9.388;2023-04-25T03:58:31;3.15;;;1.80;;
34481;SDS011;20720;48.886;9.388;2023-04-25T04:00:57;2.53;;;1.65;;
34481;SDS011;20720;48.886;9.388;2023-04-25T04:03:22;2.90;;;2.00;;
34481;SDS011;20720;48.886;9.388;2023-04-25T04:05:47;2.80;;;1.80;;
34481;SDS011;20720;48.886;9.388;2023-04-25T04:08:13;3.75;;;1.65;;
34481;SDS011;20720;48.886;9.388;2023-04-25T04:10:38;4.00;;;1.67;;
34481;SDS011;20720;48.886;9.388;2023-04-25T04:13:03;4.50;;;1.80;;
34481;SDS011;20720;48.886;9.388;2023-04-25T04:15:29;3.38;;;1.98;;
34481;SDS011;20720;48.886;9.388;2023-04-25T04:17:54;3.05;;;1.60;;
34481;SDS011;20720;48.886;9.388;2023-04-25T04:20:20;4.10;;;1.75;;
34481;SDS011;20720;48.886;9.388;2023-04-25T04:22:45;2.90;;;1.90;;
34481;SDS011;20720;48.886;9.388;2023-04-25T04:25:11;4.60;;;2.00;;
34481;SDS011;20720;48.886;9.388;2023-04-25T04:27:37;5.35;;;2.28;;
34481;SDS011;20720;48.886;9.388;2023-04-25T04:30:03;3.00;;;2.00;;
34481;SDS011;20720;48.886;9.388;2023-04-25T04:32:29;3.75;;;2.17;;
34481;SDS011;20720;48.886;9.388;2023-04-25T04:34:55;4.30;;;2.33;;
34481;SDS011;20720;48.886;9.388;2023-04-25T04:37:20;4.20;;;2.47;;
34481;SDS011;20720;48.886;9.388;2023-04-25T04:39:46;4.55;;;2.85;;
34481;SDS011;20720;48.886;9.388;2023-04-25T04:42:12;5.13;;;2.03;;
34481;SDS011;20720;48.886;9.388;2023-04-25T04:44:38;2.55;;;2.03;;
34481;SDS011;20720;48.886;9.388;2023-04-25T04:47:04;6.45;;;2.38;;
34481;SDS011;20720;48.886;9.388;2023-04-25T04:49:31;3.28;;;2.50;;
34481;SDS011;20720;48.886;9.388;2023-04-25T04:51:56;4.00;;;2.33;;
34481;SDS011;20720;48.886;9.388;2023-04-25T04:54:22;3.80;;;2.33;;
34481;SDS011;20720;48.886;9.388;2023-04-25T04:56:47;3.92;;;2.40;;
34481;SDS011;20720;48.886;9.388;2023-04-25T04:59:12;3.17;;;2.05;;
34481;SDS011;20720;48.886;9.388;2023-04-25T05:01:38;3.85;;;2.58;;
34481;SDS011;20720;48.886;9.388;2023-04-25T05:04:03;3.75;;;2.60;;
34481;SDS011;20720;48.886;9.388;2023-04-25T05:06:29;4.32;;;2.78;;
34481;SDS011;20720;48.886;9.388;2023-04-25T05:08:55;4.07;;;2.58;;
34481;SDS011;20720;48.886;9.388;2023-04-25T05:11:22;5.75;;;2.47;;
34481;SDS011;20720;48.886;9.388;2023-04-25T05:13:48;4.53;;;2.70;;
34481;SDS011;20720;48.886;9.388;2023-04-25T05:16:13;5.15;;;3.10;;
34481;SDS011;20720;48.886;9.388;2023-04-25T05:18:39;4.85;;;2.70;;
34481;SDS011;20720;48.886;9.388;2023-04-25T05:21:04;3.83;;;2.38;;
34481;SDS011;20720;48.886;9.388;2023-04-25T05:23:30;3.92;;;2.92;;
34481;SDS011;20720;48.886;9.388;2023-04-25T05:25:56;3.30;;;2.50;;
34481;SDS011;20720;48.886;9.388;2023-04-25T05:28:21;3.97;;;2.58;;
34481;SDS011;20720;48.886;9.388;2023-04-25T05:30:47;4.32;;;2.38;;
34481;SDS011;20720;48.886;9.388;2023-04-25T05:33:12;4.20;;;2.78;;
34481;SDS011;20720;48.886;9.388;2023-04-25T05:35:37;3.90;;;2.78;;
34481;SDS011;20720;48.886;9.388;2023-04-25T05:38:03;4.70;;;2.83;;
34481;SDS011;20720;48.886;9.388;2023-04-25T05:40:28;5.28;;;2.70;;
34481;SDS011;20720;48.886;9.388;2023-04-25T05:42:53;3.22;;;2.38;;
34481;SDS011;20720;48.886;9.388;2023-04-25T05:45:18;5.05;;;2.53;;
34481;SDS011;20720;48.886;9.388;2023-04-25T05:47:44;3.72;;;2.67;;
34481;SDS011;20720;48.886;9.388;2023-04-25T05:50:09;3.15;;;2.38;;
34481;SDS011;20720;48.886;9.388;2023-04-25T05:52:34;3.30;;;2.40;;
34481;SDS011;20720;48.886;9.388;2023-04-25T05:55:00;6.07;;;2.90;;
34481;SDS011;20720;48.886;9.388;2023-04-25T05:57:25;3.88;;;2.45;;
34481;SDS011;20720;48.886;9.388;2023-04-25T05:59:51;4.47;;;3.15;;
34481;SDS011;20720;48.886;9.388;2023-04-25T06:02:18;5.30;;;3.08;;
34481;SDS011;20720;48.886;9.388;2023-04-25T06:04:44;4.32;;;2.92;;
34481;SDS011;20720;48.886;9.388;2023-04-25T06:07:09;6.22;;;3.60;;
34481;SDS011;20720;48.886;9.388;2023-04-25T06:09:35;4.55;;;3.17;;
34481;SDS011;20720;48.886;9.388;2023-04-25T06:12:00;4.43;;;3.25;;
34481;SDS011;20720;48.886;9.388;2023-04-25T06:14:26;4.80;;;3.22;;
34481;SDS011;20720;48.886;9.388;2023-04-25T06:16:52;5.18;;;3.40;;
34481;SDS011;20720;48.886;9.388;2023-04-25T06:19:17;5.53;;;3.40;;
34481;SDS011;20720;48.886;9.388;2023-04-25T06:21:43;4.30;;;3.58;;
34481;SDS011;20720;48.886;9.388;2023-04-25T06:24:09;5.25;;;3.45;;
34481;SDS011;20720;48.886;9.388;2023-04-25T06:26:34;5.05;;;3.67;;
34481;SDS011;20720;48.886;9.388;2023-04-25T06:28:59;4.30;;;3.40;;
34481;SDS011;20720;48.886;9.388;2023-04-25T06:31:25;4.43;;;3.28;;
34481;SDS011;20720;48.886;9.388;2023-04-25T06:33:50;3.83;;;2.85;;
34481;SDS011;20720;48.886;9.388;2023-04-25T06:36:19;3.67;;;2.67;;
34481;SDS011;20720;48.886;9.388;2023-04-25T06:38:49;4.55;;;2.63;;
34481;SDS011;20720;48.886;9.388;2023-04-25T06:41:15;4.78;;;3.60;;
34481;SDS011;20720;48.886;9.388;2023-04-25T06:43:40;3.60;;;2.58;;
34481;SDS011;20720;48.886;9.388;2023-04-25T06:46:05;3.60;;;2.80;;
34481;SDS011;20720;48.886;9.388;2023-04-25T06:48:30;4.30;;;2.78;;
34481;SDS011;20720;48.886;9.388;2023-04-25T06:50:56;3.83;;;2.72;;
34481;SDS011;20720;48.886;9.388;2023-04-25T06:53:21;3.42;;;2.47;;
34481;SDS011;20720;48.886;9.388;2023-04-25T06:55:46;2.92;;;2.30;;
34481;SDS011;20720;48.886;9.388;2023-04-25T06:58:12;3.80;;;2.72;;
34481;SDS011;20720;48.886;9.388;2023-04-25T07:00:37;4.40;;;2.75;;
34481;SDS011;20720;48.886;9.388;2023-04-25T07:03:02;3.40;;;2.90;;
34481;SDS011;20720;48.886;9.388;2023-04-25T07:05:27;3.67;;;3.13;;
34481;SDS011;20720;48.886;9.388;2023-04-25T07:07:53;3.53;;;2.88;;
34481;SDS011;20720;48.886;9.388;2023-04-25T07:10:18;3.85;;;2.85;;
34481;SDS011;20720;48.886;9.388;2023-04-25T07:12:43;4.25;;;3.10;;
34481;SDS011;20720;48.886;9.388;2023-04-25T07:15:09;4.70;;;3.35;;
34481;SDS011;20720;48.886;9.388;2023-04-25T07:17:35;5.00;;;3.50;;
34481;SDS011;20720;48.886;9.388;2023-04-25T07:20:00;3.72;;;3.13;;
34481;SDS011;20720;48.886;9.388;2023-04-25T07:22:26;3.70;;;2.80;;
34481;SDS011;20720;48.886;9.388;2023-04-25T07:24:51;4.22;;;2.60;;
34481;SDS011;20720;48.886;9.388;2023-04-25T07:27:18;3.65;;;2.75;;
34481;SDS011;20720;48.886;9.388;2023-04-25T07:29:43;4.78;;;3.25;;
34481;SDS011;20720;48.886;9.388;2023-04-25T07:32:09;4.43;;;3.05;;
34481;SDS011;20720;48.886;9.388;2023-04-25T07:34:37;3.80;;;3.05;;
34481;SDS011;20720;48.886;9.388;2023-04-25T07:37:10;4.28;;;3.00;;
34481;SDS011;20720;48.886;9.388;2023-04-25T07:39:35;4.78;;;3.13;;
34481;SDS011;20720;48.886;9.388;2023-04-25T07:42:02;4.30;;;2.92;;
34481;SDS011;20720;48.886;9.388;2023-04-25T07:44:27;5.20;;;3.38;;
34481;SDS011;20720;48.886;9.388;2023-04-25T07:46:52;3.63;;;3.10;;
34481;SDS011;20720;48.886;9.388;2023-04-25T07:49:17;4.20;;;2.95;;
34481;SDS011;20720;48.886;9.388;2023-04-25T07:51:43;4.95;;;3.20;;
34481;SDS011;20720;48.886;9.388;2023-04-25T07:54:09;3.85;;;2.63;;
34481;SDS011;20720;48.886;9.388;2023-04-25T07:56:34;4.10;;;2.70;;
34481;SDS011;20720;48.886;9.388;2023-04-25T07:59:00;3.63;;;2.63;;
34481;SDS011;20720;48.886;9.388;2023-04-25T08:01:25;4.03;;;2.97;;
34481;SDS011;20720;48.886;9.388;2023-04-25T08:03:51;5.35;;;2.63;;
34481;SDS011;20720;48.886;9.388;2023-04-25T08:06:17;4.15;;;3.08;;
34481;SDS011;20720;48.886;9.388;2023-04-25T08:08:42;4.32;;;3.15;;
34481;SDS011;20720;48.886;9.388;2023-04-25T08:11:08;5.22;;;3.30;;
34481;SDS011;20720;48.886;9.388;2023-04-25T08:13:33;4.70;;;3.40;;
34481;SDS011;20720;48.886;9.388;2023-04-25T08:15:58;6.18;;;3.63;;
34481;SDS011;20720;48.886;9.388;2023-04-25T08:18:23;4.90;;;3.65;;
34481;SDS011;20720;48.886;9.388;2023-04-25T08:20:49;5.00;;;4.00;;
34481;SDS011;20720;48.886;9.388;2023-04-25T08:23:14;4.45;;;3.90;;
34481;SDS011;20720;48.886;9.388;2023-04-25T08:25:40;6.07;;;4.50;;
34481;SDS011;20720;48.886;9.388;2023-04-25T08:28:05;5.25;;;4.15;;
34481;SDS011;20720;48.886;9.388;2023-04-25T08:30:31;4.63;;;3.72;;
34481;SDS011;20720;48.886;9.388;2023-04-25T08:32:56;7.38;;;4.53;;
34481;SDS011;20720;48.886;9.388;2023-04-25T08:35:21;6.20;;;4.50;;
34481;SDS011;20720;48.886;9.388;2023-04-25T08:37:47;4.90;;;3.72;;
34481;SDS011;20720;48.886;9.388;2023-04-25T08:40:14;5.95;;;3.72;;
34481;SDS011;20720;48.886;9.388;2023-04-25T08:42:41;7.47;;;4.30;;
34481;SDS011;20720;48.886;9.388;2023-04-25T08:45:07;7.63;;;4.57;;
34481;SDS011;20720;48.886;9.388;2023-04-25T08:47:33;5.00;;;3.75;;
34481;SDS011;20720;48.886;9.388;2023-04-25T08:49:59;5.75;;;4.43;;
34481;SDS011;20720;48.886;9.388;2023-04-25T08:52:28;4.80;;;3.78;;
34481;SDS011;20720;48.886;9.388;2023-04-25T08:54:57;5.00;;;4.03;;
34481;SDS011;20720;48.886;9.388;2023-04-25T08:57:23;6.55;;;4.00;;
34481;SDS011;20720;48.886;9.388;2023-04-25T08:59:49;5.47;;;3.42;;
34481;SDS011;20720;48.886;9.388;2023-04-25T09:02:14;8.32;;;4.78;;
34481;SDS011;20720;48.886;9.388;2023-04-25T09:04:44;6.13;;;4.63;;
34481;SDS011;20720;48.886;9.388;2023-04-25T09:07:10;5.60;;;4.30;;
34481;SDS011;20720;48.886;9.388;2023-04-25T09:09:35;8.93;;;4.18;;
34481;SDS011;20720;48.886;9.388;2023-04-25T09:12:01;7.82;;;4.88;;
34481;SDS011;20720;48.886;9.388;2023-04-25T09:14:26;5.95;;;4.30;;
34481;SDS011;20720;48.886;9.388;2023-04-25T09:19:24;6.78;;;5.25;;
34481;SDS011;20720;48.886;9.388;2023-04-25T09:21:53;6.93;;;4.90;;
34481;SDS011;20720;48.886;9.388;2023-04-25T09:24:29;5.65;;;4.13;;
34481;SDS011;20720;48.886;9.388;2023-04-25T09:27:06;7.03;;;4.93;;
34481;SDS011;20720;48.886;9.388;2023-04-25T09:29:34;9.70;;;4.63;;
34481;SDS011;20720;48.886;9.388;2023-04-25T09:34:48;6.57;;;4.95;;
34481;SDS011;20720;48.886;9.388;2023-04-25T09:37:19;8.25;;;4.80;;
34481;SDS011;20720;48.886;9.388;2023-04-25T09:39:49;8.18;;;5.07;;
34481;SDS011;20720;48.886;9.388;2023-04-25T09:42:15;9.55;;;5.25;;
34481;SDS011;20720;48.886;9.388;2023-04-25T09:44:42;7.18;;;5.53;;
34481;SDS011;20720;48.886;9.388;2023-04-25T09:47:10;7.70;;;5.40;;
34481;SDS011;20720;48.886;9.388;2023-04-25T09:49:38;6.47;;;4.78;;
34481;SDS011;20720;48.886;9.388;2023-04-25T09:52:05;6.43;;;4.47;;
34481;SDS011;20720;48.886;9.388;2023-04-25T09:54:31;7.93;;;5.22;;
34481;SDS011;20720;48.886;9.388;2023-04-25T09:56:56;7.50;;;4.68;;
34481;SDS011;20720;48.886;9.388;2023-04-25T09:59:27;5.50;;;4.13;;
34481;SDS011;20720;48.886;9.388;2023-04-25T10:01:56;6.95;;;5.13;;
34481;SDS011;20720;48.886;9.388;2023-04-25T10:04:23;6.53;;;4.38;;
34481;SDS011;20720;48.886;9.388;2023-04-25T10:06:51;8.05;;;4.45;;
34481;SDS011;20720;48.886;9.388;2023-04-25T10:09:20;6.65;;;4.63;;
34481;SDS011;20720;48.886;9.388;2023-04-25T10:11:46;8.40;;;5.32;;
34481;SDS011;20720;48.886;9.388;2023-04-25T10:14:13;7.32;;;5.40;;
34481;SDS011;20720;48.886;9.388;2023-04-25T10:16:39;6.18;;;4.35;;
34481;SDS011;20720;48.886;9.388;2023-04-25T10:19:05;6.07;;;4.45;;
34481;SDS011;20720;48.886;9.388;2023-04-25T10:21:31;6.35;;;3.90;;
34481;SDS011;20720;48.886;9.388;2023-04-25T10:23:57;4.85;;;3.58;;
34481;SDS011;20720;48.886;9.388;2023-04-25T10:26:23;3.65;;;2.72;;
34481;SDS011;20720;48.886;9.388;2023-04-25T10:29:00;5.35;;;3.42;;
34481;SDS011;20720;48.886;9.388;2023-04-25T10:31:27;5.85;;;4.10;;
34481;SDS011;20720;48.886;9.388;2023-04-25T10:33:53;7.05;;;4.03;;
34481;SDS011;20720;48.886;9.388;2023-04-25T10:36:20;9.98;;;4.13;;
34481;SDS011;20720;48.886;9.388;2023-04-25T10:38:47;6.30;;;4.88;;
34481;SDS011;20720;48.886;9.388;2023-04-25T10:41:15;7.15;;;5.15;;
34481;SDS011;20720;48.886;9.388;2023-04-25T10:43:44;9.82;;;4.65;;
34481;SDS011;20720;48.886;9.388;2023-04-25T10:48:52;6.90;;;4.63;;
34481;SDS011;20720;48.886;9.388;2023-04-25T10:51:20;5.40;;;4.25;;
34481;SDS011;20720;48.886;9.388;2023-04-25T10:54:01;5.55;;;4.35;;
34481;SDS011;20720;48.886;9.388;2023-04-25T10:56:29;5.75;;;3.90;;
34481;SDS011;20720;48.886;9.388;2023-04-25T10:59:10;6.82;;;4.35;;
34481;SDS011;20720;48.886;9.388;2023-04-25T11:01:37;5.72;;;4.35;;
34481;SDS011;20720;48.886;9.388;2023-04-25T11:04:23;7.32;;;4.72;;
34481;SDS011;20720;48.886;9.388;2023-04-25T11:09:52;7.38;;;5.38;;
34481;SDS011;20720;48.886;9.388;2023-04-25T11:12:18;7.90;;;5.03;;
34481;SDS011;20720;48.886;9.388;2023-04-25T11:14:43;8.57;;;5.05;;
34481;SDS011;20720;48.886;9.388;2023-04-25T11:17:08;8.60;;;5.50;;
34481;SDS011;20720;48.886;9.388;2023-04-25T11:19:35;6.93;;;5.15;;
34481;SDS011;20720;48.886;9.388;2023-04-25T11:22:01;9.93;;;5.95;;
34481;SDS011;20720;48.886;9.388;2023-04-25T11:24:30;7.82;;;5.88;;
34481;SDS011;20720;48.886;9.388;2023-04-25T11:26:57;10.27;;;6.30;;
34481;SDS011;20720;48.886;9.388;2023-04-25T11:29:24;11.50;;;6.97;;
34481;SDS011;20720;48.886;9.388;2023-04-25T11:31:52;9.95;;;6.38;;
34481;SDS011;20720;48.886;9.388;2023-04-25T11:34:18;13.43;;;5.85;;
34481;SDS011;20720;48.886;9.388;2023-04-25T11:36:44;7.45;;;5.43;;
34481;SDS011;20720;48.886;9.388;2023-04-25T11:39:10;10.05;;;5.82;;
34481;SDS011;20720;48.886;9.388;2023-04-25T11:41:37;8.68;;;5.47;;
34481;SDS011;20720;48.886;9.388;2023-04-25T11:44:03;8.13;;;5.38;;
34481;SDS011;20720;48.886;9.388;2023-04-25T11:46:28;8.77;;;4.70;;
34481;SDS011;20720;48.886;9.388;2023-04-25T11:48:54;7.40;;;4.40;;
34481;SDS011;20720;48.886;9.388;2023-04-25T11:51:20;5.82;;;3.47;;
34481;SDS011;20720;48.886;9.388;2023-04-25T11:53:46;6.80;;;3.97;;
34481;SDS011;20720;48.886;9.388;2023-04-25T11:56:12;6.57;;;4.72;;
34481;SDS011;20720;48.886;9.388;2023-04-25T11:58:53;7.93;;;4.30;;
34481;SDS011;20720;48.886;9.388;2023-04-25T12:01:33;4.93;;;3.08;;
34481;SDS011;20720;48.886;9.388;2023-04-25T12:04:20;7.25;;;3.03;;
34481;SDS011;20720;48.886;9.388;2023-04-25T12:06:47;4.78;;;3.10;;
34481;SDS011;20720;48.886;9.388;2023-04-25T12:09:15;4.13;;;3.17;;
34481;SDS011;20720;48.886;9.388;2023-04-25T12:12:00;4.32;;;2.80;;
34481;SDS011;20720;48.886;9.388;2023-04-25T12:14:32;6.00;;;2.97;;
34481;SDS011;20720;48.886;9.388;2023-04-25T12:16:59;4.35;;;2.88;;
34481;SDS011;20720;48.886;9.388;2023-04-25T12:19:26;4.35;;;3.03;;
34481;SDS011;20720;48.886;9.388;2023-04-25T12:21:58;4.35;;;3.28;;
34481;SDS011;20720;48.886;9.388;2023-04-25T12:24:25;4.95;;;3.20;;
34481;SDS011;20720;48.886;9.388;2023-04-25T12:26:53;4.72;;;2.42;;
34481;SDS011;20720;48.886;9.388;2023-04-25T12:29:26;5.63;;;3.10;;
34481;SDS011;20720;48.886;9.388;2023-04-25T12:31:53;6.28;;;3.60;;
34481;SDS011;20720;48.886;9.388;2023-04-25T12:34:19;6.18;;;3.38;;
34481;SDS011;20720;48.886;9.388;2023-04-25T12:36:46;5.03;;;3.30;;
34481;SDS011;20720;48.886;9.388;2023-04-25T12:39:18;5.38;;;3.72;;
34481;SDS011;20720;48.886;9.388;2023-04-25T12:41:51;4.22;;;3.13;;
34481;SDS011;20720;48.886;9.388;2023-04-25T12:44:18;5.00;;;3.38;;
34481;SDS011;20720;48.886;9.388;2023-04-25T12:46:44;3.97;;;3.20;;
34481;SDS011;20720;48.886;9.388;2023-04-25T12:49:10;5.07;;;3.97;;
34481;SDS011;20720;48.886;9.388;2023-04-25T12:51:35;4.30;;;3.40;;
34481;SDS011;20720;48.886;9.388;2023-04-25T12:54:01;5.72;;;4.13;;
34481;SDS011;20720;48.886;9.388;2023-04-25T12:56:28;7.43;;;4.65;;
34481;SDS011;20720;48.886;9.388;2023-04-25T12:58:53;6.93;;;4.60;;
34481;SDS011;20720;48.886;9.388;2023-04-25T13:01:19;8.18;;;4.97;;
34481;SDS011;20720;48.886;9.388;2023-04-25T13:03:45;6.65;;;4.32;;
34481;SDS011;20720;48.886;9.388;2023-04-25T13:06:11;7.40;;;4.47;;
34481;SDS011;20720;48.886;9.388;2023-04-25T13:08:37;9.05;;;5.43;;
34481;SDS011;20720;48.886;9.388;2023-04-25T13:11:03;5.75;;;4.20;;
34481;SDS011;20720;48.886;9.388;2023-04-25T13:13:29;8.25;;;5.15;;
34481;SDS011;20720;48.886;9.388;2023-04-25T13:15:56;7.65;;;5.03;;
34481;SDS011;20720;48.886;9.388;2023-04-25T13:18:21;7.90;;;4.30;;
34481;SDS011;20720;48.886;9.388;2023-04-25T13:20:51;7.05;;;4.18;;
34481;SDS011;20720;48.886;9.388;2023-04-25T13:23:16;8.32;;;4.82;;
34481;SDS011;20720;48.886;9.388;2023-04-25T13:25:41;7.63;;;4.15;;
34481;SDS011;20720;48.886;9.388;2023-04-25T13:28:06;6.25;;;4.10;;
34481;SDS011;20720;48.886;9.388;2023-04-25T13:30:32;5.63;;;4.25;;
34481;SDS011;20720;48.886;9.388;2023-04-25T13:32:57;8.15;;;4.78;;
34481;SDS011;20720;48.886;9.388;2023-04-25T13:35:27;6.63;;;4.88;;
34481;SDS011;20720;48.886;9.388;2023-04-25T13:37:53;7.65;;;5.53;;
34481;SDS011;20720;48.886;9.388;2023-04-25T13:40:18;9.75;;;5.40;;
34481;SDS011;20720;48.886;9.388;2023-04-25T13:42:47;9.52;;;5.90;;
34481;SDS011;20720;48.886;9.388;2023-04-25T13:45:13;9.05;;;6.22;;
34481;SDS011;20720;48.886;9.388;2023-04-25T13:47:39;10.10;;;6.43;;
34481;SDS011;20720;48.886;9.388;2023-04-25T13:50:04;9.55;;;6.45;;
34481;SDS011;20720;48.886;9.388;2023-04-25T13:52:30;8.90;;;5.65;;
34481;SDS011;20720;48.886;9.388;2023-04-25T13:54:56;8.00;;;5.50;;
34481;SDS011;20720;48.886;9.388;2023-04-25T13:57:22;10.20;;;5.80;;
34481;SDS011;20720;48.886;9.388;2023-04-25T13:59:47;9.25;;;6.75;;
34481;SDS011;20720;48.886;9.388;2023-04-25T14:02:12;9.20;;;6.30;;
34481;SDS011;20720;48.886;9.388;2023-04-25T14:04:38;13.18;;;7.35;;
34481;SDS011;20720;48.886;9.388;2023-04-25T14:07:03;12.50;;;7.10;;
34481;SDS011;20720;48.886;9.388;2023-04-25T14:09:29;12.27;;;7.90;;
34481;SDS011;20720;48.886;9.388;2023-04-25T14:11:55;13.60;;;8.07;;
34481;SDS011;20720;48.886;9.388;2023-04-25T14:14:21;8.18;;;6.45;;
34481;SDS011;20720;48.886;9.388;2023-04-25T14:16:47;10.95;;;6.80;;
34481;SDS011;20720;48.886;9.388;2023-04-25T14:19:16;9.20;;;6.47;;
34481;SDS011;20720;48.886;9.388;2023-04-25T14:21:42;10.27;;;6.18;;
34481;SDS011;20720;48.886;9.388;2023-04-25T14:24:08;8.38;;;5.50;;
34481;SDS011;20720;48.886;9.388;2023-04-25T14:26:34;9.20;;;5.63;;
34481;SDS011;20720;48.886;9.388;2023-04-25T14:29:01;7.05;;;5.47;;
34481;SDS011;20720;48.886;9.388;2023-04-25T14:31:26;11.82;;;6.10;;
34481;SDS011;20720;48.886;9.388;2023-04-25T14:33:52;8.77;;;5.97;;
34481;SDS011;20720;48.886;9.388;2023-04-25T14:36:17;8.45;;;5.28;;
34481;SDS011;20720;48.886;9.388;2023-04-25T14:38:42;6.25;;;4.88;;
34481;SDS011;20720;48.886;9.388;2023-04-25T14:41:08;8.27;;;5.68;;
34481;SDS011;20720;48.886;9.388;2023-04-25T14:43:33;8.48;;;5.47;;
34481;SDS011;20720;48.886;9.388;2023-04-25T14:45:58;5.15;;;4.35;;
34481;SDS011;20720;48.886;9.388;2023-04-25T14:48:23;12.27;;;5.93;;
34481;SDS011;20720;48.886;9.388;2023-04-25T14:50:49;9.63;;;6.15;;
34481;SDS011;20720;48.886;9.388;2023-04-25T14:53:14;8.80;;;5.60;;
34481;SDS011;20720;48.886;9.388;2023-04-25T14:55:40;7.88;;;5.63;;